<?xml version="1.0" encoding="UTF-8" standalone="no" ?>
<gpx xmlns="http://www.topografix.com/GPX/1/1" xmlns:xsi="http://www.w3.org/2001/XMLSchema-instance" xsi:schemaLocation="http://www.topografix.com/GPX/1/1 http://www.topografix.com/GPX/1/1/gpx.xsd" version="1.1" creator="VisuGPX - https://www.visugpx.com">
  <metadata>
    <name>11884488-M2 déviation</name>
    <desc><![CDATA[Déviation M2]]></desc>
  </metadata>
  <trk>
    <name><![CDATA[11884488-M2 déviation]]></name>
    <trkseg>
      <trkpt lat="46.25554" lon="4.48533">
        <ele>528</ele>
        <time>2020-08-17T14:31:45Z</time>
      </trkpt>
      <trkpt lat="46.25512" lon="4.48537">
        <ele>528</ele>
        <time>2020-08-17T14:31:55Z</time>
      </trkpt>
      <trkpt lat="46.25447" lon="4.48473">
        <ele>524</ele>
        <time>2020-08-17T14:32:13Z</time>
      </trkpt>
      <trkpt lat="46.25417" lon="4.48396">
        <ele>527</ele>
        <time>2020-08-17T14:32:27Z</time>
      </trkpt>
      <trkpt lat="46.25405" lon="4.4829">
        <ele>532</ele>
        <time>2020-08-17T14:32:45Z</time>
      </trkpt>
      <trkpt lat="46.25356" lon="4.48258">
        <ele>538</ele>
        <time>2020-08-17T14:32:57Z</time>
      </trkpt>
      <trkpt lat="46.25279" lon="4.48168">
        <ele>547</ele>
        <time>2020-08-17T14:33:20Z</time>
      </trkpt>
      <trkpt lat="46.2524" lon="4.48016">
        <ele>556</ele>
        <time>2020-08-17T14:33:47Z</time>
      </trkpt>
      <trkpt lat="46.25276" lon="4.4775">
        <ele>566</ele>
        <time>2020-08-17T14:34:30Z</time>
      </trkpt>
      <trkpt lat="46.25331" lon="4.4758">
        <ele>576</ele>
        <time>2020-08-17T14:35:01Z</time>
      </trkpt>
      <trkpt lat="46.25384" lon="4.47539">
        <ele>574</ele>
        <time>2020-08-17T14:35:15Z</time>
      </trkpt>
      <trkpt lat="46.25392" lon="4.47475">
        <ele>575</ele>
        <time>2020-08-17T14:35:25Z</time>
      </trkpt>
      <trkpt lat="46.25433" lon="4.4737">
        <ele>578</ele>
        <time>2020-08-17T14:35:45Z</time>
      </trkpt>
      <trkpt lat="46.25508" lon="4.47297">
        <ele>583</ele>
        <time>2020-08-17T14:36:06Z</time>
      </trkpt>
      <trkpt lat="46.25663" lon="4.47269">
        <ele>578</ele>
        <time>2020-08-17T14:36:42Z</time>
      </trkpt>
      <trkpt lat="46.25779" lon="4.47119">
        <ele>589</ele>
        <time>2020-08-17T14:37:19Z</time>
      </trkpt>
      <trkpt lat="46.25895" lon="4.47057">
        <ele>598</ele>
        <time>2020-08-17T14:37:48Z</time>
      </trkpt>
      <trkpt lat="46.26033" lon="4.46881">
        <ele>613</ele>
        <time>2020-08-17T14:38:31Z</time>
      </trkpt>
    </trkseg>
  </trk>
</gpx>